sensor_id;sensor_type;location;lat;lon;timestamp;P1;durP1;ratioP1;P2;durP2;ratioP2
76667;SDS011;65585;51.166;16.922;2023-04-24T00:01:13;18.60;;;10.13;;
76667;SDS011;65585;51.166;16.922;2023-04-24T00:04:04;12.27;;;10.50;;
76667;SDS011;65585;51.166;16.922;2023-04-24T00:09:26;15.90;;;11.15;;
76667;SDS011;65585;51.166;16.922;2023-04-24T00:12:09;14.32;;;10.50;;
76667;SDS011;65585;51.166;16.922;2023-04-24T00:14:43;14.77;;;10.27;;
76667;SDS011;65585;51.166;16.922;2023-04-24T00:17:12;16.00;;;11.73;;
76667;SDS011;65585;51.166;16.922;2023-04-24T00:19:57;13.95;;;10.52;;
76667;SDS011;65585;51.166;16.922;2023-04-24T00:22:37;15.85;;;11.15;;
76667;SDS011;65585;51.166;16.922;2023-04-24T00:25:13;14.38;;;11.05;;
76667;SDS011;65585;51.166;16.922;2023-04-24T00:27:45;16.13;;;11.02;;
76667;SDS011;65585;51.166;16.922;2023-04-24T00:33:48;15.25;;;10.77;;
76667;SDS011;65585;51.166;16.922;2023-04-24T00:45:51;15.80;;;11.73;;
76667;SDS011;65585;51.166;16.922;2023-04-24T00:52:53;17.25;;;12.88;;
76667;SDS011;65585;51.166;16.922;2023-04-24T00:55:38;16.52;;;11.90;;
76667;SDS011;65585;51.166;16.922;2023-04-24T00:58:10;18.48;;;11.85;;
76667;SDS011;65585;51.166;16.922;2023-04-24T01:00:51;18.40;;;13.32;;
76667;SDS011;65585;51.166;16.922;2023-04-24T01:03:30;17.23;;;12.60;;
76667;SDS011;65585;51.166;16.922;2023-04-24T01:06:10;15.63;;;12.57;;
76667;SDS011;65585;51.166;16.922;2023-04-24T01:08:55;20.85;;;13.05;;
76667;SDS011;65585;51.166;16.922;2023-04-24T01:11:27;17.48;;;13.60;;
76667;SDS011;65585;51.166;16.922;2023-04-24T01:14:04;17.67;;;12.60;;
76667;SDS011;65585;51.166;16.922;2023-04-24T01:16:51;17.60;;;12.82;;
76667;SDS011;65585;51.166;16.922;2023-04-24T01:19:35;18.23;;;13.77;;
76667;SDS011;65585;51.166;16.922;2023-04-24T01:22:02;17.95;;;13.55;;
76667;SDS011;65585;51.166;16.922;2023-04-24T01:24:28;16.38;;;12.60;;
76667;SDS011;65585;51.166;16.922;2023-04-24T01:37:08;18.55;;;13.10;;
76667;SDS011;65585;51.166;16.922;2023-04-24T01:39:37;19.00;;;13.73;;
76667;SDS011;65585;51.166;16.922;2023-04-24T01:42:03;18.20;;;12.27;;
76667;SDS011;65585;51.166;16.922;2023-04-24T01:44:31;19.35;;;13.35;;
76667;SDS011;65585;51.166;16.922;2023-04-24T01:46:57;19.35;;;13.75;;
76667;SDS011;65585;51.166;16.922;2023-04-24T01:57:22;19.42;;;14.30;;
76667;SDS011;65585;51.166;16.922;2023-04-24T02:30:21;16.13;;;12.10;;
76667;SDS011;65585;51.166;16.922;2023-04-24T02:32:48;15.60;;;11.73;;
76667;SDS011;65585;51.166;16.922;2023-04-24T02:45:28;17.60;;;12.65;;
76667;SDS011;65585;51.166;16.922;2023-04-24T02:47:54;17.35;;;12.23;;
76667;SDS011;65585;51.166;16.922;2023-04-24T02:50:20;21.65;;;13.93;;
76667;SDS011;65585;51.166;16.922;2023-04-24T02:52:46;17.08;;;12.77;;
76667;SDS011;65585;51.166;16.922;2023-04-24T03:05:25;19.27;;;13.15;;
76667;SDS011;65585;51.166;16.922;2023-04-24T03:07:53;16.92;;;12.70;;
76667;SDS011;65585;51.166;16.922;2023-04-24T03:10:19;16.05;;;12.45;;
76667;SDS011;65585;51.166;16.922;2023-04-24T03:12:45;16.35;;;12.40;;
76667;SDS011;65585;51.166;16.922;2023-04-24T03:15:11;18.45;;;13.57;;
76667;SDS011;65585;51.166;16.922;2023-04-24T03:39:38;19.27;;;11.52;;
76667;SDS011;65585;51.166;16.922;2023-04-24T03:55:51;15.60;;;10.95;;
76667;SDS011;65585;51.166;16.922;2023-04-24T03:59:59;14.85;;;11.18;;
76667;SDS011;65585;51.166;16.922;2023-04-24T04:18:18;14.38;;;11.00;;
76667;SDS011;65585;51.166;16.922;2023-04-24T04:20:44;18.38;;;12.82;;
76667;SDS011;65585;51.166;16.922;2023-04-24T04:23:10;15.68;;;12.73;;
76667;SDS011;65585;51.166;16.922;2023-04-24T04:25:37;15.57;;;12.30;;
76667;SDS011;65585;51.166;16.922;2023-04-24T04:28:03;17.55;;;13.00;;
76667;SDS011;65585;51.166;16.922;2023-04-24T04:30:29;19.05;;;12.85;;
76667;SDS011;65585;51.166;16.922;2023-04-24T04:45:45;21.55;;;15.05;;
76667;SDS011;65585;51.166;16.922;2023-04-24T04:48:14;19.48;;;14.27;;
76667;SDS011;65585;51.166;16.922;2023-04-24T04:50:43;18.17;;;13.80;;
76667;SDS011;65585;51.166;16.922;2023-04-24T04:53:09;17.10;;;13.60;;
76667;SDS011;65585;51.166;16.922;2023-04-24T04:55:36;17.77;;;13.80;;
76667;SDS011;65585;51.166;16.922;2023-04-24T05:10:42;17.88;;;11.43;;
76667;SDS011;65585;51.166;16.922;2023-04-24T05:13:08;16.40;;;12.45;;
76667;SDS011;65585;51.166;16.922;2023-04-24T05:15:35;18.55;;;12.18;;
76667;SDS011;65585;51.166;16.922;2023-04-24T05:18:01;17.70;;;12.90;;
76667;SDS011;65585;51.166;16.922;2023-04-24T05:20:27;18.88;;;12.70;;
76667;SDS011;65585;51.166;16.922;2023-04-24T05:38:12;13.10;;;9.98;;
76667;SDS011;65585;51.166;16.922;2023-04-24T05:40:38;12.25;;;10.77;;
76667;SDS011;65585;51.166;16.922;2023-04-24T05:43:05;13.80;;;10.80;;
76667;SDS011;65585;51.166;16.922;2023-04-24T05:45:31;15.57;;;10.02;;
76667;SDS011;65585;51.166;16.922;2023-04-24T05:47:57;13.75;;;10.30;;
76667;SDS011;65585;51.166;16.922;2023-04-24T06:00:42;13.23;;;9.45;;
76667;SDS011;65585;51.166;16.922;2023-04-24T06:03:10;13.27;;;9.30;;
76667;SDS011;65585;51.166;16.922;2023-04-24T06:05:36;12.95;;;9.82;;
76667;SDS011;65585;51.166;16.922;2023-04-24T06:08:02;12.85;;;9.77;;
76667;SDS011;65585;51.166;16.922;2023-04-24T06:10:29;10.45;;;8.65;;
76667;SDS011;65585;51.166;16.922;2023-04-24T06:12:55;10.25;;;8.60;;
76667;SDS011;65585;51.166;16.922;2023-04-24T06:15:27;11.93;;;9.05;;
76667;SDS011;65585;51.166;16.922;2023-04-24T06:17:54;11.38;;;9.35;;
76667;SDS011;65585;51.166;16.922;2023-04-24T06:28:06;12.23;;;8.10;;
76667;SDS011;65585;51.166;16.922;2023-04-24T06:30:32;10.93;;;8.75;;
76667;SDS011;65585;51.166;16.922;2023-04-24T06:32:58;14.00;;;8.40;;
76667;SDS011;65585;51.166;16.922;2023-04-24T06:35:25;10.48;;;7.63;;
76667;SDS011;65585;51.166;16.922;2023-04-24T06:37:51;10.32;;;7.93;;
76667;SDS011;65585;51.166;16.922;2023-04-24T06:40:17;10.25;;;8.35;;
76667;SDS011;65585;51.166;16.922;2023-04-24T06:42:46;9.70;;;7.47;;
76667;SDS011;65585;51.166;16.922;2023-04-24T06:45:12;8.90;;;7.22;;
76667;SDS011;65585;51.166;16.922;2023-04-24T06:47:38;10.15;;;7.82;;
76667;SDS011;65585;51.166;16.922;2023-04-24T07:00:18;11.10;;;7.00;;
76667;SDS011;65585;51.166;16.922;2023-04-24T07:02:44;9.35;;;7.40;;
76667;SDS011;65585;51.166;16.922;2023-04-24T07:05:10;10.52;;;7.38;;
76667;SDS011;65585;51.166;16.922;2023-04-24T07:07:36;9.38;;;7.75;;
76667;SDS011;65585;51.166;16.922;2023-04-24T07:10:03;8.93;;;7.32;;
76667;SDS011;65585;51.166;16.922;2023-04-24T07:12:30;9.25;;;7.43;;
76667;SDS011;65585;51.166;16.922;2023-04-24T07:14:57;10.80;;;7.20;;
76667;SDS011;65585;51.166;16.922;2023-04-24T07:20:02;9.05;;;7.55;;
76667;SDS011;65585;51.166;16.922;2023-04-24T07:22:43;12.55;;;7.25;;
76667;SDS011;65585;51.166;16.922;2023-04-24T07:29:36;6.85;;;6.15;;
76667;SDS011;65585;51.166;16.922;2023-04-24T07:34:58;8.70;;;6.07;;
76667;SDS011;65585;51.166;16.922;2023-04-24T07:37:53;7.78;;;6.68;;
76667;SDS011;65585;51.166;16.922;2023-04-24T07:40:32;7.72;;;6.28;;
76667;SDS011;65585;51.166;16.922;2023-04-24T07:42:58;6.68;;;5.38;;
76667;SDS011;65585;51.166;16.922;2023-04-24T07:45:28;6.35;;;5.20;;
76667;SDS011;65585;51.166;16.922;2023-04-24T07:47:55;8.20;;;5.00;;
76667;SDS011;65585;51.166;16.922;2023-04-24T07:50:22;8.10;;;5.25;;
76667;SDS011;65585;51.166;16.922;2023-04-24T07:52:48;5.45;;;4.47;;
76667;SDS011;65585;51.166;16.922;2023-04-24T07:55:15;5.97;;;4.43;;
76667;SDS011;65585;51.166;16.922;2023-04-24T07:57:53;5.13;;;4.22;;
76667;SDS011;65585;51.166;16.922;2023-04-24T08:00:20;4.35;;;3.75;;
76667;SDS011;65585;51.166;16.922;2023-04-24T08:03:31;6.78;;;4.28;;
76667;SDS011;65585;51.166;16.922;2023-04-24T08:06:34;3.97;;;3.53;;
76667;SDS011;65585;51.166;16.922;2023-04-24T08:09:41;5.70;;;4.10;;
76667;SDS011;65585;51.166;16.922;2023-04-24T08:12:49;4.82;;;3.70;;
76667;SDS011;65585;51.166;16.922;2023-04-24T08:15:17;4.70;;;4.20;;
76667;SDS011;65585;51.166;16.922;2023-04-24T08:17:57;5.82;;;4.47;;
76667;SDS011;65585;51.166;16.922;2023-04-24T08:20:48;5.40;;;4.20;;
76667;SDS011;65585;51.166;16.922;2023-04-24T08:23:53;4.55;;;3.90;;
76667;SDS011;65585;51.166;16.922;2023-04-24T08:26:22;6.72;;;4.75;;
76667;SDS011;65585;51.166;16.922;2023-04-24T08:28:57;5.53;;;4.13;;
76667;SDS011;65585;51.166;16.922;2023-04-24T08:31:35;6.88;;;4.25;;
76667;SDS011;65585;51.166;16.922;2023-04-24T08:34:01;6.07;;;4.60;;
76667;SDS011;65585;51.166;16.922;2023-04-24T08:42:41;6.07;;;5.10;;
76667;SDS011;65585;51.166;16.922;2023-04-24T08:45:09;6.32;;;5.40;;
76667;SDS011;65585;51.166;16.922;2023-04-24T08:47:39;5.72;;;4.70;;
76667;SDS011;65585;51.166;16.922;2023-04-24T08:50:07;6.50;;;4.60;;
76667;SDS011;65585;51.166;16.922;2023-04-24T08:52:34;5.57;;;4.35;;
76667;SDS011;65585;51.166;16.922;2023-04-24T08:55:02;4.28;;;3.85;;
76667;SDS011;65585;51.166;16.922;2023-04-24T08:57:28;6.13;;;3.78;;
76667;SDS011;65585;51.166;16.922;2023-04-24T09:08:02;4.70;;;4.20;;
76667;SDS011;65585;51.166;16.922;2023-04-24T09:10:31;5.25;;;4.53;;
76667;SDS011;65585;51.166;16.922;2023-04-24T09:12:57;5.30;;;4.68;;
76667;SDS011;65585;51.166;16.922;2023-04-24T09:15:27;7.22;;;5.00;;
76667;SDS011;65585;51.166;16.922;2023-04-24T09:17:57;5.15;;;4.65;;
76667;SDS011;65585;51.166;16.922;2023-04-24T09:20:27;5.78;;;5.18;;
76667;SDS011;65585;51.166;16.922;2023-04-24T09:22:53;7.10;;;5.47;;
76667;SDS011;65585;51.166;16.922;2023-04-24T09:52:10;6.30;;;5.00;;
76667;SDS011;65585;51.166;16.922;2023-04-24T09:54:59;7.93;;;4.82;;
76667;SDS011;65585;51.166;16.922;2023-04-24T10:05:12;5.68;;;4.32;;
76667;SDS011;65585;51.166;16.922;2023-04-24T10:07:38;7.10;;;5.90;;
76667;SDS011;65585;51.166;16.922;2023-04-24T10:10:04;5.90;;;4.68;;
76667;SDS011;65585;51.166;16.922;2023-04-24T10:12:32;6.20;;;5.57;;
76667;SDS011;65585;51.166;16.922;2023-04-24T10:15:16;6.90;;;5.05;;
76667;SDS011;65585;51.166;16.922;2023-04-24T10:17:47;8.82;;;5.45;;
76667;SDS011;65585;51.166;16.922;2023-04-24T10:20:18;7.10;;;5.20;;
76667;SDS011;65585;51.166;16.922;2023-04-24T10:22:52;6.45;;;5.45;;
76667;SDS011;65585;51.166;16.922;2023-04-24T10:25:23;6.07;;;5.10;;
76667;SDS011;65585;51.166;16.922;2023-04-24T10:33:44;8.13;;;5.68;;
76667;SDS011;65585;51.166;16.922;2023-04-24T10:36:55;6.38;;;5.50;;
76667;SDS011;65585;51.166;16.922;2023-04-24T10:39:24;7.65;;;6.00;;
76667;SDS011;65585;51.166;16.922;2023-04-24T10:41:50;6.72;;;5.90;;
76667;SDS011;65585;51.166;16.922;2023-04-24T10:44:18;7.85;;;5.65;;
76667;SDS011;65585;51.166;16.922;2023-04-24T10:46:52;7.22;;;5.40;;
76667;SDS011;65585;51.166;16.922;2023-04-24T10:49:27;7.95;;;5.15;;
76667;SDS011;65585;51.166;16.922;2023-04-24T10:51:59;7.22;;;5.93;;
76667;SDS011;65585;51.166;16.922;2023-04-24T10:54:33;8.65;;;6.32;;
76667;SDS011;65585;51.166;16.922;2023-04-24T10:57:26;7.22;;;5.60;;
76667;SDS011;65585;51.166;16.922;2023-04-24T11:04:58;7.03;;;5.05;;
76667;SDS011;65585;51.166;16.922;2023-04-24T11:10:45;7.38;;;4.72;;
76667;SDS011;65585;51.166;16.922;2023-04-24T11:13:17;6.70;;;4.90;;
76667;SDS011;65585;51.166;16.922;2023-04-24T11:16:11;5.85;;;5.25;;
76667;SDS011;65585;51.166;16.922;2023-04-24T11:18:52;7.22;;;6.40;;
76667;SDS011;65585;51.166;16.922;2023-04-24T11:21:28;8.63;;;6.78;;
76667;SDS011;65585;51.166;16.922;2023-04-24T11:34:19;7.20;;;5.95;;
76667;SDS011;65585;51.166;16.922;2023-04-24T11:36:49;7.38;;;5.55;;
76667;SDS011;65585;51.166;16.922;2023-04-24T11:39:15;6.30;;;5.05;;
76667;SDS011;65585;51.166;16.922;2023-04-24T11:41:44;6.50;;;5.15;;
76667;SDS011;65585;51.166;16.922;2023-04-24T11:44:12;6.65;;;5.68;;
76667;SDS011;65585;51.166;16.922;2023-04-24T11:46:42;6.47;;;5.40;;
76667;SDS011;65585;51.166;16.922;2023-04-24T11:49:08;5.75;;;5.15;;
76667;SDS011;65585;51.166;16.922;2023-04-24T11:59:21;5.15;;;4.30;;
76667;SDS011;65585;51.166;16.922;2023-04-24T12:01:48;6.55;;;4.95;;
76667;SDS011;65585;51.166;16.922;2023-04-24T12:04:15;5.20;;;4.57;;
76667;SDS011;65585;51.166;16.922;2023-04-24T12:07:08;5.95;;;4.50;;
76667;SDS011;65585;51.166;16.922;2023-04-24T12:09:48;5.47;;;4.95;;
76667;SDS011;65585;51.166;16.922;2023-04-24T12:12:26;5.45;;;4.95;;
76667;SDS011;65585;51.166;16.922;2023-04-24T12:14:59;5.97;;;4.60;;
76667;SDS011;65585;51.166;16.922;2023-04-24T12:26:38;6.85;;;4.93;;
76667;SDS011;65585;51.166;16.922;2023-04-24T12:29:19;6.88;;;5.78;;
76667;SDS011;65585;51.166;16.922;2023-04-24T12:31:49;7.07;;;5.78;;
76667;SDS011;65585;51.166;16.922;2023-04-24T12:34:35;7.57;;;6.20;;
76667;SDS011;65585;51.166;16.922;2023-04-24T12:37:17;7.07;;;5.45;;
76667;SDS011;65585;51.166;16.922;2023-04-24T12:39:57;9.13;;;5.47;;
76667;SDS011;65585;51.166;16.922;2023-04-24T12:42:41;7.35;;;5.35;;
76667;SDS011;65585;51.166;16.922;2023-04-24T12:45:16;6.60;;;5.47;;
76667;SDS011;65585;51.166;16.922;2023-04-24T12:55:45;2.88;;;1.95;;
76667;SDS011;65585;51.166;16.922;2023-04-24T12:58:24;2.88;;;2.25;;
76667;SDS011;65585;51.166;16.922;2023-04-24T13:00:52;3.13;;;2.00;;
76667;SDS011;65585;51.166;16.922;2023-04-24T13:03:41;2.80;;;2.00;;
76667;SDS011;65585;51.166;16.922;2023-04-24T13:06:10;4.30;;;2.10;;
76667;SDS011;65585;51.166;16.922;2023-04-24T13:08:42;2.67;;;2.10;;
76667;SDS011;65585;51.166;16.922;2023-04-24T13:11:08;3.28;;;2.22;;
76667;SDS011;65585;51.166;16.922;2023-04-24T13:26:30;3.53;;;2.00;;
76667;SDS011;65585;51.166;16.922;2023-04-24T13:28:57;2.38;;;1.77;;
76667;SDS011;65585;51.166;16.922;2023-04-24T13:31:23;5.70;;;2.15;;
76667;SDS011;65585;51.166;16.922;2023-04-24T13:33:49;2.55;;;1.95;;
76667;SDS011;65585;51.166;16.922;2023-04-24T13:36:15;2.70;;;1.83;;
76667;SDS011;65585;51.166;16.922;2023-04-24T13:38:46;2.00;;;1.67;;
76667;SDS011;65585;51.166;16.922;2023-04-24T13:41:12;2.55;;;1.70;;
76667;SDS011;65585;51.166;16.922;2023-04-24T13:56:40;2.80;;;2.03;;
76667;SDS011;65585;51.166;16.922;2023-04-24T13:59:07;3.28;;;2.58;;
76667;SDS011;65585;51.166;16.922;2023-04-24T14:01:34;3.40;;;2.40;;
76667;SDS011;65585;51.166;16.922;2023-04-24T14:04:00;3.58;;;2.83;;
76667;SDS011;65585;51.166;16.922;2023-04-24T14:06:27;8.77;;;5.72;;
76667;SDS011;65585;51.166;16.922;2023-04-24T14:08:54;5.03;;;3.40;;
76667;SDS011;65585;51.166;16.922;2023-04-24T14:11:19;8.15;;;5.30;;
76667;SDS011;65585;51.166;16.922;2023-04-24T14:26:26;3.88;;;2.83;;
76667;SDS011;65585;51.166;16.922;2023-04-24T14:28:52;4.30;;;3.10;;
76667;SDS011;65585;51.166;16.922;2023-04-24T14:31:19;5.05;;;3.22;;
76667;SDS011;65585;51.166;16.922;2023-04-24T14:33:45;4.55;;;3.28;;
76667;SDS011;65585;51.166;16.922;2023-04-24T14:36:12;5.47;;;3.72;;
76667;SDS011;65585;51.166;16.922;2023-04-24T14:38:37;4.88;;;3.47;;
76667;SDS011;65585;51.166;16.922;2023-04-24T14:41:04;6.80;;;3.80;;
76667;SDS011;65585;51.166;16.922;2023-04-24T14:43:35;6.93;;;3.75;;
76667;SDS011;65585;51.166;16.922;2023-04-24T14:53:47;5.88;;;3.80;;
76667;SDS011;65585;51.166;16.922;2023-04-24T15:00:29;4.60;;;3.03;;
76667;SDS011;65585;51.166;16.922;2023-04-24T15:02:56;5.97;;;3.50;;
76667;SDS011;65585;51.166;16.922;2023-04-24T15:05:22;4.10;;;3.05;;
76667;SDS011;65585;51.166;16.922;2023-04-24T15:07:48;5.80;;;3.17;;
76667;SDS011;65585;51.166;16.922;2023-04-24T15:10:14;7.82;;;3.92;;
76667;SDS011;65585;51.166;16.922;2023-04-24T15:30:21;2.97;;;2.25;;
76667;SDS011;65585;51.166;16.922;2023-04-24T15:32:47;4.10;;;3.00;;
76667;SDS011;65585;51.166;16.922;2023-04-24T15:35:13;4.45;;;2.78;;
76667;SDS011;65585;51.166;16.922;2023-04-24T15:37:40;5.32;;;2.70;;
76667;SDS011;65585;51.166;16.922;2023-04-24T15:53:22;4.22;;;2.40;;
76667;SDS011;65585;51.166;16.922;2023-04-24T15:55:50;4.45;;;2.60;;
76667;SDS011;65585;51.166;16.922;2023-04-24T15:58:17;3.20;;;2.38;;
76667;SDS011;65585;51.166;16.922;2023-04-24T16:00:44;3.63;;;2.40;;
76667;SDS011;65585;51.166;16.922;2023-04-24T16:03:11;4.10;;;2.50;;
76667;SDS011;65585;51.166;16.922;2023-04-24T16:05:38;2.90;;;2.40;;
76667;SDS011;65585;51.166;16.922;2023-04-24T16:20:44;4.50;;;3.08;;
76667;SDS011;65585;51.166;16.922;2023-04-24T16:23:10;3.85;;;2.65;;
76667;SDS011;65585;51.166;16.922;2023-04-24T16:25:36;4.68;;;3.08;;
76667;SDS011;65585;51.166;16.922;2023-04-24T16:28:02;4.53;;;3.35;;
76667;SDS011;65585;51.166;16.922;2023-04-24T16:30:28;5.75;;;3.40;;
76667;SDS011;65585;51.166;16.922;2023-04-24T16:32:54;5.07;;;3.25;;
76667;SDS011;65585;51.166;16.922;2023-04-24T16:48:07;5.15;;;4.07;;
76667;SDS011;65585;51.166;16.922;2023-04-24T16:50:35;6.85;;;4.50;;
76667;SDS011;65585;51.166;16.922;2023-04-24T16:53:02;6.90;;;4.30;;
76667;SDS011;65585;51.166;16.922;2023-04-24T16:55:28;7.32;;;4.72;;
76667;SDS011;65585;51.166;16.922;2023-04-24T16:57:55;6.65;;;4.32;;
76667;SDS011;65585;51.166;16.922;2023-04-24T17:00:21;5.40;;;4.03;;
76667;SDS011;65585;51.166;16.922;2023-04-24T17:02:47;6.30;;;4.35;;
76667;SDS011;65585;51.166;16.922;2023-04-24T17:10:39;7.53;;;5.18;;
76667;SDS011;65585;51.166;16.922;2023-04-24T17:21:56;7.95;;;4.85;;
76667;SDS011;65585;51.166;16.922;2023-04-24T17:24:40;7.45;;;4.68;;
76667;SDS011;65585;51.166;16.922;2023-04-24T17:27:23;5.38;;;4.40;;
76667;SDS011;65585;51.166;16.922;2023-04-24T17:30:16;8.07;;;5.43;;
76667;SDS011;65585;51.166;16.922;2023-04-24T17:32:43;9.38;;;5.95;;
76667;SDS011;65585;51.166;16.922;2023-04-24T17:35:10;7.28;;;6.00;;
76667;SDS011;65585;51.166;16.922;2023-04-24T17:37:42;13.18;;;8.10;;
76667;SDS011;65585;51.166;16.922;2023-04-24T17:40:11;9.20;;;8.05;;
76667;SDS011;65585;51.166;16.922;2023-04-24T17:42:42;10.77;;;8.02;;
76667;SDS011;65585;51.166;16.922;2023-04-24T17:47:48;19.55;;;11.55;;
76667;SDS011;65585;51.166;16.922;2023-04-24T18:12:44;11.55;;;7.93;;
76667;SDS011;65585;51.166;16.922;2023-04-24T18:19:21;11.68;;;6.57;;
76667;SDS011;65585;51.166;16.922;2023-04-24T18:21:47;11.52;;;6.78;;
76667;SDS011;65585;51.166;16.922;2023-04-24T18:24:13;8.32;;;6.05;;
76667;SDS011;65585;51.166;16.922;2023-04-24T18:26:40;9.00;;;6.80;;
76667;SDS011;65585;51.166;16.922;2023-04-24T18:29:06;9.90;;;7.45;;
76667;SDS011;65585;51.166;16.922;2023-04-24T18:31:32;11.60;;;7.80;;
76667;SDS011;65585;51.166;16.922;2023-04-24T18:33:58;10.57;;;7.30;;
76667;SDS011;65585;51.166;16.922;2023-04-24T18:36:25;11.63;;;7.35;;
76667;SDS011;65585;51.166;16.922;2023-04-24T18:51:39;14.55;;;8.88;;
76667;SDS011;65585;51.166;16.922;2023-04-24T18:54:05;14.48;;;9.80;;
76667;SDS011;65585;51.166;16.922;2023-04-24T18:56:31;15.18;;;10.52;;
76667;SDS011;65585;51.166;16.922;2023-04-24T18:58:57;17.60;;;11.48;;
76667;SDS011;65585;51.166;16.922;2023-04-24T19:01:23;20.27;;;12.82;;
76667;SDS011;65585;51.166;16.922;2023-04-24T19:03:50;19.45;;;14.85;;
76667;SDS011;65585;51.166;16.922;2023-04-24T19:06:16;20.73;;;14.95;;
76667;SDS011;65585;51.166;16.922;2023-04-24T19:19:23;19.90;;;13.60;;
76667;SDS011;65585;51.166;16.922;2023-04-24T19:21:51;19.13;;;13.23;;
76667;SDS011;65585;51.166;16.922;2023-04-24T19:24:17;21.10;;;13.60;;
76667;SDS011;65585;51.166;16.922;2023-04-24T19:26:46;20.15;;;12.23;;
76667;SDS011;65585;51.166;16.922;2023-04-24T19:29:15;23.85;;;12.73;;
76667;SDS011;65585;51.166;16.922;2023-04-24T19:31:41;19.13;;;11.70;;
76667;SDS011;65585;51.166;16.922;2023-04-24T19:44:28;21.17;;;12.45;;
76667;SDS011;65585;51.166;16.922;2023-04-24T19:46:55;24.80;;;13.18;;
76667;SDS011;65585;51.166;16.922;2023-04-24T19:49:21;21.98;;;13.20;;
76667;SDS011;65585;51.166;16.922;2023-04-24T19:51:48;21.10;;;13.38;;
76667;SDS011;65585;51.166;16.922;2023-04-24T19:54:14;25.85;;;16.05;;
76667;SDS011;65585;51.166;16.922;2023-04-24T19:56:41;27.63;;;15.07;;
76667;SDS011;65585;51.166;16.922;2023-04-24T19:59:07;29.67;;;17.00;;
76667;SDS011;65585;51.166;16.922;2023-04-24T20:01:36;24.65;;;14.50;;
76667;SDS011;65585;51.166;16.922;2023-04-24T20:12:02;23.88;;;14.55;;
76667;SDS011;65585;51.166;16.922;2023-04-24T20:14:29;24.15;;;13.68;;
76667;SDS011;65585;51.166;16.922;2023-04-24T20:16:56;16.95;;;11.55;;
76667;SDS011;65585;51.166;16.922;2023-04-24T20:19:22;14.38;;;10.38;;
76667;SDS011;65585;51.166;16.922;2023-04-24T20:21:52;15.02;;;9.93;;
76667;SDS011;65585;51.166;16.922;2023-04-24T20:24:18;13.75;;;9.43;;
76667;SDS011;65585;51.166;16.922;2023-04-24T20:26:47;12.70;;;8.20;;
76667;SDS011;65585;51.166;16.922;2023-04-24T20:29:15;11.40;;;7.82;;
76667;SDS011;65585;51.166;16.922;2023-04-24T20:42:13;9.35;;;6.47;;
76667;SDS011;65585;51.166;16.922;2023-04-24T20:44:41;8.82;;;6.15;;
76667;SDS011;65585;51.166;16.922;2023-04-24T20:47:10;8.85;;;6.55;;
76667;SDS011;65585;51.166;16.922;2023-04-24T20:49:36;8.05;;;5.75;;
76667;SDS011;65585;51.166;16.922;2023-04-24T20:52:02;11.52;;;7.30;;
76667;SDS011;65585;51.166;16.922;2023-04-24T20:54:29;8.30;;;6.22;;
76667;SDS011;65585;51.166;16.922;2023-04-24T20:56:58;8.90;;;5.78;;
76667;SDS011;65585;51.166;16.922;2023-04-24T21:07:30;9.48;;;6.20;;
76667;SDS011;65585;51.166;16.922;2023-04-24T21:09:57;10.80;;;6.10;;
76667;SDS011;65585;51.166;16.922;2023-04-24T21:12:23;10.18;;;5.93;;
76667;SDS011;65585;51.166;16.922;2023-04-24T21:14:50;10.07;;;6.20;;
76667;SDS011;65585;51.166;16.922;2023-04-24T21:17:16;9.88;;;6.45;;
76667;SDS011;65585;51.166;16.922;2023-04-24T21:19:42;8.13;;;5.57;;
76667;SDS011;65585;51.166;16.922;2023-04-24T21:22:08;9.30;;;5.90;;
76667;SDS011;65585;51.166;16.922;2023-04-24T21:35:07;8.25;;;4.38;;
76667;SDS011;65585;51.166;16.922;2023-04-24T21:37:34;8.27;;;4.35;;
76667;SDS011;65585;51.166;16.922;2023-04-24T21:40:02;6.22;;;3.97;;
76667;SDS011;65585;51.166;16.922;2023-04-24T21:42:31;6.15;;;4.00;;
76667;SDS011;65585;51.166;16.922;2023-04-24T21:44:57;5.13;;;4.13;;
76667;SDS011;65585;51.166;16.922;2023-04-24T21:47:24;5.40;;;3.78;;
76667;SDS011;65585;51.166;16.922;2023-04-24T21:49:50;5.63;;;4.15;;
76667;SDS011;65585;51.166;16.922;2023-04-24T22:00:03;7.70;;;3.70;;
76667;SDS011;65585;51.166;16.922;2023-04-24T22:02:33;8.20;;;3.50;;
76667;SDS011;65585;51.166;16.922;2023-04-24T22:05:00;10.20;;;3.35;;
76667;SDS011;65585;51.166;16.922;2023-04-24T22:07:28;6.43;;;3.42;;
76667;SDS011;65585;51.166;16.922;2023-04-24T22:09:54;5.00;;;3.20;;
76667;SDS011;65585;51.166;16.922;2023-04-24T22:12:20;8.43;;;3.95;;
76667;SDS011;65585;51.166;16.922;2023-04-24T22:14:46;5.75;;;3.45;;
76667;SDS011;65585;51.166;16.922;2023-04-24T22:27:39;4.85;;;3.25;;
76667;SDS011;65585;51.166;16.922;2023-04-24T22:30:05;5.57;;;3.10;;
76667;SDS011;65585;51.166;16.922;2023-04-24T22:32:33;4.38;;;2.90;;
76667;SDS011;65585;51.166;16.922;2023-04-24T22:35:01;5.60;;;2.60;;
76667;SDS011;65585;51.166;16.922;2023-04-24T22:37:26;4.28;;;2.58;;
76667;SDS011;65585;51.166;16.922;2023-04-24T22:39:53;4.13;;;2.78;;
76667;SDS011;65585;51.166;16.922;2023-04-24T22:42:19;6.38;;;2.60;;
76667;SDS011;65585;51.166;16.922;2023-04-24T22:52:45;3.17;;;2.25;;
76667;SDS011;65585;51.166;16.922;2023-04-24T22:55:12;2.80;;;2.10;;
76667;SDS011;65585;51.166;16.922;2023-04-24T22:57:38;6.57;;;2.55;;
76667;SDS011;65585;51.166;16.922;2023-04-24T23:00:06;3.35;;;2.42;;
76667;SDS011;65585;51.166;16.922;2023-04-24T23:02:39;3.55;;;2.45;;
76667;SDS011;65585;51.166;16.922;2023-04-24T23:05:09;3.65;;;2.42;;
76667;SDS011;65585;51.166;16.922;2023-04-24T23:07:35;4.28;;;2.80;;
76667;SDS011;65585;51.166;16.922;2023-04-24T23:17:48;3.53;;;2.40;;
76667;SDS011;65585;51.166;16.922;2023-04-24T23:20:15;3.10;;;2.15;;
76667;SDS011;65585;51.166;16.922;2023-04-24T23:22:41;3.50;;;2.20;;
76667;SDS011;65585;51.166;16.922;2023-04-24T23:25:08;3.55;;;2.05;;
76667;SDS011;65585;51.166;16.922;2023-04-24T23:27:35;3.80;;;2.22;;
76667;SDS011;65585;51.166;16.922;2023-04-24T23:30:02;2.65;;;2.13;;
76667;SDS011;65585;51.166;16.922;2023-04-24T23:32:32;4.38;;;2.42;;
76667;SDS011;65585;51.166;16.922;2023-04-24T23:45:19;3.08;;;2.03;;
76667;SDS011;65585;51.166;16.922;2023-04-24T23:47:46;2.58;;;1.85;;
76667;SDS011;65585;51.166;16.922;2023-04-24T23:50:12;3.92;;;2.00;;
76667;SDS011;65585;51.166;16.922;2023-04-24T23:52:38;2.88;;;1.95;;
76667;SDS011;65585;51.166;16.922;2023-04-24T23:55:05;2.65;;;1.92;;
76667;SDS011;65585;51.166;16.922;2023-04-24T23:57:34;2.38;;;1.80;;
